createdAt,value
2023-03-29T00:01:35.140Z,6.40
2023-03-29T00:04:04.317Z,6.40
2023-03-29T00:06:33.167Z,6.40
2023-03-29T00:09:02.006Z,6.40
2023-03-29T00:11:28.710Z,6.40
2023-03-29T00:13:55.472Z,6.40
2023-03-29T00:16:22.494Z,6.40
2023-03-29T00:18:49.210Z,6.40
2023-03-29T00:21:15.877Z,6.50
2023-03-29T00:23:42.633Z,6.50
2023-03-29T00:26:09.480Z,6.40
2023-03-29T00:28:36.291Z,6.40
2023-03-29T00:31:08.587Z,6.40
2023-03-29T00:33:35.756Z,6.40
2023-03-29T00:36:03.857Z,6.40
2023-03-29T00:38:31.508Z,6.50
2023-03-29T00:40:59.034Z,6.40
2023-03-29T00:43:25.945Z,6.50
2023-03-29T00:45:53.008Z,6.50
2023-03-29T00:48:27.131Z,6.50
2023-03-29T00:51:03.743Z,6.50
2023-03-29T00:53:33.348Z,6.50
2023-03-29T00:56:14.029Z,6.50
2023-03-29T00:58:59.142Z,6.50
2023-03-29T01:01:41.977Z,6.60
2023-03-29T01:04:18.645Z,6.60
2023-03-29T01:07:01.074Z,6.60
2023-03-29T01:09:30.376Z,6.60
2023-03-29T01:12:02.566Z,6.70
2023-03-29T01:14:48.649Z,6.70
2023-03-29T01:17:16.033Z,6.70
2023-03-29T01:19:50.132Z,6.70
2023-03-29T01:22:49.016Z,6.70
2023-03-29T01:25:53.472Z,6.70
2023-03-29T01:28:29.757Z,6.80
2023-03-29T01:31:03.559Z,6.80
2023-03-29T01:33:36.287Z,6.80
2023-03-29T01:36:37.166Z,6.90
2023-03-29T01:39:05.903Z,6.90
2023-03-29T01:41:55.991Z,6.90
2023-03-29T01:44:54.183Z,7.00
2023-03-29T01:47:33.842Z,6.90
2023-03-29T01:50:08.569Z,7.00
2023-03-29T01:52:53.784Z,7.00
2023-03-29T01:55:35.892Z,7.00
2023-03-29T01:58:05.065Z,7.10
2023-03-29T02:00:34.195Z,7.10
2023-03-29T02:03:05.765Z,7.10
2023-03-29T02:05:34.508Z,7.10
2023-03-29T02:08:03.481Z,7.10
2023-03-29T02:10:30.612Z,7.10
2023-03-29T02:12:58.444Z,7.10
2023-03-29T02:15:25.275Z,7.20
2023-03-29T02:17:52.880Z,7.20
2023-03-29T02:20:25.662Z,7.20
2023-03-29T02:23:04.618Z,7.20
2023-03-29T02:25:32.462Z,7.30
2023-03-29T02:27:59.685Z,7.20
2023-03-29T02:30:32.422Z,7.30
2023-03-29T02:33:21.886Z,7.20
2023-03-29T02:36:00.675Z,7.30
2023-03-29T02:38:28.477Z,7.30
2023-03-29T02:40:56.184Z,7.30
2023-03-29T02:43:26.006Z,7.30
2023-03-29T02:45:53.412Z,7.30
2023-03-29T02:48:23.196Z,7.30
2023-03-29T02:50:53.400Z,7.30
2023-03-29T02:53:26.671Z,7.40
2023-03-29T02:55:53.832Z,7.30
2023-03-29T02:58:20.620Z,7.40
2023-03-29T03:00:48.961Z,7.40
2023-03-29T03:03:15.870Z,7.40
2023-03-29T03:05:43.948Z,7.40
2023-03-29T03:08:10.622Z,7.40
2023-03-29T03:10:37.640Z,7.40
2023-03-29T03:13:04.425Z,7.40
2023-03-29T03:15:35.482Z,7.40
2023-03-29T03:18:03.440Z,7.40
2023-03-29T03:20:31.089Z,7.40
2023-03-29T03:22:58.342Z,7.40
2023-03-29T03:25:25.167Z,7.50
2023-03-29T03:27:51.783Z,7.50
2023-03-29T03:30:18.854Z,7.50
2023-03-29T03:32:45.584Z,7.40
2023-03-29T03:35:12.758Z,7.50
2023-03-29T03:37:40.226Z,7.50
2023-03-29T03:40:08.855Z,7.50
2023-03-29T03:42:35.688Z,7.50
2023-03-29T03:45:02.330Z,7.50
2023-03-29T03:47:29.237Z,7.50
2023-03-29T03:49:56.332Z,7.50
2023-03-29T03:52:23.236Z,7.50
2023-03-29T03:54:50.158Z,7.50
2023-03-29T03:57:17.639Z,7.50
2023-03-29T03:59:44.711Z,7.50
2023-03-29T04:02:11.441Z,7.50
2023-03-29T04:04:39.410Z,7.50
2023-03-29T04:07:06.123Z,7.60
2023-03-29T04:09:34.142Z,7.60
2023-03-29T04:12:01.616Z,7.60
2023-03-29T04:14:28.390Z,7.60
2023-03-29T04:16:55.214Z,7.60
2023-03-29T04:19:22.002Z,7.60
2023-03-29T04:21:49.571Z,7.60
2023-03-29T04:24:17.165Z,7.60
2023-03-29T04:26:44.248Z,7.60
2023-03-29T04:29:10.896Z,7.60
2023-03-29T04:31:37.594Z,7.60
2023-03-29T04:34:04.455Z,7.60
2023-03-29T04:36:31.062Z,7.60
2023-03-29T04:39:01.416Z,7.60
2023-03-29T04:41:28.606Z,7.60
2023-03-29T04:43:55.865Z,7.60
2023-03-29T04:46:26.348Z,7.60
2023-03-29T04:48:53.897Z,7.60
2023-03-29T04:51:22.194Z,7.60
2023-03-29T04:53:50.339Z,7.60
2023-03-29T04:56:17.564Z,7.60
2023-03-29T04:58:44.537Z,7.60
2023-03-29T05:01:11.358Z,7.60
2023-03-29T05:03:38.090Z,7.60
2023-03-29T05:06:07.219Z,7.60
2023-03-29T05:08:35.226Z,7.70
2023-03-29T05:11:02.054Z,7.70
2023-03-29T05:13:28.855Z,7.70
2023-03-29T05:15:57.075Z,7.70
2023-03-29T05:18:23.736Z,7.70
2023-03-29T05:20:53.219Z,7.70
2023-03-29T05:23:20.442Z,7.70
2023-03-29T05:25:51.288Z,7.70
2023-03-29T05:28:18.460Z,7.70
2023-03-29T05:30:46.560Z,7.70
2023-03-29T05:33:13.311Z,7.70
2023-03-29T05:35:39.979Z,7.70
2023-03-29T05:38:06.940Z,7.70
2023-03-29T05:40:33.643Z,7.70
2023-03-29T05:43:02.487Z,7.70
2023-03-29T05:45:30.111Z,7.70
2023-03-29T05:47:57.592Z,7.70
2023-03-29T05:50:24.727Z,7.80
2023-03-29T05:52:51.581Z,7.80
2023-03-29T05:55:18.444Z,7.80
2023-03-29T05:57:45.220Z,7.80
2023-03-29T06:00:23.868Z,7.80
2023-03-29T06:02:59.299Z,7.80
2023-03-29T06:05:33.908Z,7.80
2023-03-29T06:08:01.202Z,7.80
2023-03-29T06:10:28.917Z,7.80
2023-03-29T06:12:55.524Z,7.90
2023-03-29T06:15:23.149Z,7.80
2023-03-29T06:17:49.939Z,7.90
2023-03-29T06:20:16.986Z,7.90
2023-03-29T06:22:43.685Z,7.90
2023-03-29T06:25:15.231Z,8.00
2023-03-29T06:27:41.892Z,8.00
2023-03-29T06:30:09.184Z,8.00
2023-03-29T06:32:36.112Z,8.10
2023-03-29T06:35:04.900Z,8.10
2023-03-29T06:37:32.443Z,8.10
2023-03-29T06:39:59.727Z,8.20
2023-03-29T06:42:26.742Z,8.20
2023-03-29T06:44:53.369Z,8.30
2023-03-29T06:47:20.229Z,8.30
2023-03-29T06:49:46.899Z,8.30
2023-03-29T06:52:13.503Z,8.40
2023-03-29T06:54:40.624Z,8.40
2023-03-29T06:57:08.042Z,8.50
2023-03-29T06:59:35.102Z,8.50
2023-03-29T07:02:02.598Z,8.60
2023-03-29T07:04:29.624Z,8.60
2023-03-29T07:07:02.158Z,8.70
2023-03-29T07:09:30.461Z,8.80
2023-03-29T07:11:58.522Z,8.90
2023-03-29T07:14:28.620Z,8.90
2023-03-29T07:16:56.363Z,9.00
2023-03-29T07:19:25.163Z,9.00
2023-03-29T07:21:53.317Z,9.10
2023-03-29T07:24:21.270Z,9.20
2023-03-29T07:27:00.135Z,9.20
2023-03-29T07:29:29.750Z,9.20
2023-03-29T07:31:56.547Z,9.30
2023-03-29T07:34:24.239Z,9.30
2023-03-29T07:36:51.486Z,9.30
2023-03-29T07:39:18.362Z,9.40
2023-03-29T07:41:44.934Z,9.40
2023-03-29T07:44:11.560Z,9.50
2023-03-29T07:46:38.277Z,9.50
2023-03-29T07:49:05.521Z,9.60
2023-03-29T07:51:32.166Z,9.70
2023-03-29T07:53:59.740Z,9.70
2023-03-29T07:56:26.479Z,9.70
2023-03-29T07:58:53.231Z,9.80
2023-03-29T08:01:20.417Z,9.80
2023-03-29T08:03:47.982Z,9.90
2023-03-29T08:06:16.123Z,9.90
2023-03-29T08:08:42.784Z,10.00
2023-03-29T08:11:09.983Z,10.00
2023-03-29T08:13:36.956Z,10.10
2023-03-29T08:16:04.241Z,10.10
2023-03-29T08:18:33.424Z,10.10
2023-03-29T08:21:01.488Z,10.20
2023-03-29T08:23:28.329Z,10.20
2023-03-29T08:25:54.933Z,10.20
2023-03-29T08:28:22.271Z,10.30
2023-03-29T08:30:49.701Z,10.30
2023-03-29T08:33:17.095Z,10.40
2023-03-29T08:35:43.825Z,10.50
2023-03-29T08:38:11.076Z,10.50
2023-03-29T08:40:37.854Z,10.60
2023-03-29T08:43:14.461Z,10.60
2023-03-29T08:46:14.845Z,10.60
2023-03-29T08:48:49.479Z,10.70
2023-03-29T08:51:31.568Z,10.70
2023-03-29T08:54:08.035Z,10.80
2023-03-29T08:56:37.251Z,10.80
2023-03-29T08:59:06.524Z,10.80
2023-03-29T09:01:36.237Z,10.90
2023-03-29T09:04:16.552Z,11.00
2023-03-29T09:06:43.225Z,11.10
2023-03-29T09:09:17.362Z,11.00
2023-03-29T09:12:16.573Z,11.10
2023-03-29T09:14:59.754Z,11.10
2023-03-29T09:17:54.186Z,11.20
2023-03-29T09:20:33.920Z,11.30
2023-03-29T09:23:11.410Z,11.30
2023-03-29T09:26:06.649Z,11.40
2023-03-29T09:28:38.256Z,11.50
2023-03-29T09:31:21.468Z,11.60
2023-03-29T09:34:06.674Z,11.60
2023-03-29T09:36:51.433Z,11.70
2023-03-29T09:39:20.967Z,11.70
2023-03-29T09:41:50.979Z,11.80
2023-03-29T09:44:40.076Z,11.80
2023-03-29T09:47:19.146Z,11.80
2023-03-29T09:49:49.564Z,11.90
2023-03-29T09:52:17.504Z,11.90
2023-03-29T09:54:44.400Z,12.00
2023-03-29T09:57:13.852Z,12.10
2023-03-29T09:59:40.949Z,12.10
2023-03-29T10:02:13.332Z,12.20
2023-03-29T10:04:42.475Z,12.20
2023-03-29T10:07:18.093Z,12.30
2023-03-29T10:09:46.648Z,12.30
2023-03-29T10:12:13.941Z,12.40
2023-03-29T10:14:47.890Z,12.50
2023-03-29T10:17:19.675Z,12.60
2023-03-29T10:19:57.799Z,12.60
2023-03-29T10:22:27.729Z,12.70
2023-03-29T10:24:57.123Z,12.80
2023-03-29T10:27:29.128Z,12.80
2023-03-29T10:29:58.070Z,12.80
2023-03-29T10:32:36.059Z,12.80
2023-03-29T10:35:24.067Z,12.80
2023-03-29T10:37:57.558Z,12.80
2023-03-29T10:40:30.803Z,12.80
2023-03-29T10:43:12.218Z,12.80
2023-03-29T10:45:39.825Z,12.90
2023-03-29T10:48:07.735Z,12.90
2023-03-29T10:50:39.752Z,12.90
2023-03-29T10:53:22.766Z,12.90
2023-03-29T10:56:29.395Z,12.90
2023-03-29T10:59:22.614Z,12.90
2023-03-29T11:02:08.973Z,13.00
2023-03-29T11:04:38.450Z,13.10
2023-03-29T11:07:42.609Z,13.10
2023-03-29T11:10:26.940Z,13.20
2023-03-29T11:13:02.708Z,13.20
2023-03-29T11:15:45.305Z,13.10
2023-03-29T11:19:00.048Z,13.00
2023-03-29T11:21:29.748Z,12.90
2023-03-29T11:24:24.643Z,12.90
2023-03-29T11:27:02.300Z,12.90
2023-03-29T11:29:40.021Z,12.90
2023-03-29T11:32:15.418Z,12.90
2023-03-29T11:35:06.404Z,12.90
2023-03-29T11:38:05.534Z,13.00
2023-03-29T11:40:57.639Z,13.00
2023-03-29T11:43:35.925Z,13.00
2023-03-29T11:46:11.149Z,13.10
2023-03-29T11:48:53.725Z,13.10
2023-03-29T11:51:32.233Z,13.10
2023-03-29T11:54:20.608Z,13.10
2023-03-29T11:57:25.089Z,13.20
2023-03-29T12:00:02.797Z,13.20
2023-03-29T12:02:49.734Z,13.20
2023-03-29T12:05:37.219Z,13.30
2023-03-29T12:08:13.005Z,13.20
2023-03-29T12:10:45.058Z,13.20
2023-03-29T12:13:14.583Z,13.10
2023-03-29T12:15:53.798Z,13.10
2023-03-29T12:18:26.895Z,13.10
2023-03-29T12:20:58.929Z,13.20
2023-03-29T12:23:25.984Z,13.30
2023-03-29T12:26:02.316Z,13.30
2023-03-29T12:28:43.031Z,13.30
2023-03-29T12:31:35.915Z,13.30
2023-03-29T12:34:11.613Z,13.30
2023-03-29T12:37:04.267Z,13.20
2023-03-29T12:39:31.368Z,13.20
2023-03-29T12:42:14.774Z,13.10
2023-03-29T12:44:46.187Z,13.10
2023-03-29T12:47:23.360Z,13.10
2023-03-29T12:49:56.538Z,13.00
2023-03-29T12:52:32.682Z,13.00
2023-03-29T12:55:01.991Z,13.00
2023-03-29T12:57:42.095Z,13.00
2023-03-29T13:00:22.030Z,13.00
2023-03-29T13:03:19.704Z,13.10
2023-03-29T13:05:47.038Z,13.10
2023-03-29T13:08:25.950Z,13.10
2023-03-29T13:10:56.789Z,13.20
2023-03-29T13:13:36.619Z,13.20
2023-03-29T13:16:17.877Z,13.30
2023-03-29T13:18:51.955Z,13.30
2023-03-29T13:21:43.595Z,13.40
2023-03-29T13:24:45.436Z,13.40
2023-03-29T13:27:29.028Z,13.40
2023-03-29T13:30:04.477Z,13.50
2023-03-29T13:33:08.122Z,13.50
2023-03-29T13:36:00.732Z,13.50
2023-03-29T13:38:31.694Z,13.60
2023-03-29T13:41:12.197Z,13.60
2023-03-29T13:43:44.605Z,13.60
2023-03-29T13:46:23.562Z,13.60
2023-03-29T13:49:03.562Z,13.60
2023-03-29T13:51:34.681Z,13.70
2023-03-29T13:54:22.831Z,13.70
2023-03-29T13:56:57.400Z,13.80
2023-03-29T13:59:41.122Z,13.80
2023-03-29T14:02:13.871Z,13.90
2023-03-29T14:04:46.012Z,14.00
2023-03-29T14:07:14.585Z,13.90
2023-03-29T14:09:45.148Z,14.00
2023-03-29T14:12:14.508Z,14.00
2023-03-29T14:14:57.715Z,14.10
2023-03-29T14:17:25.800Z,14.10
2023-03-29T14:19:53.519Z,14.10
2023-03-29T14:22:21.385Z,14.20
2023-03-29T14:24:53.046Z,14.20
2023-03-29T14:27:21.470Z,14.20
2023-03-29T14:29:49.998Z,14.30
2023-03-29T14:32:19.502Z,14.30
2023-03-29T14:34:50.355Z,14.40
2023-03-29T14:37:26.672Z,14.50
2023-03-29T14:39:53.775Z,14.70
2023-03-29T14:42:24.461Z,14.80
2023-03-29T14:44:51.097Z,14.90
2023-03-29T14:47:29.502Z,15.00
2023-03-29T14:50:00.630Z,15.00
2023-03-29T14:52:29.225Z,15.10
2023-03-29T14:54:57.669Z,15.10
2023-03-29T14:57:27.241Z,15.20
2023-03-29T14:59:59.314Z,15.20
2023-03-29T15:02:29.274Z,15.20
2023-03-29T15:05:00.218Z,15.20
2023-03-29T15:07:28.365Z,15.20
2023-03-29T15:09:57.844Z,15.20
2023-03-29T15:12:25.338Z,15.30
2023-03-29T15:14:52.860Z,15.30
2023-03-29T15:17:49.608Z,15.40
2023-03-29T15:20:30.004Z,15.50
2023-03-29T15:23:22.601Z,15.50
2023-03-29T15:26:21.515Z,15.40
2023-03-29T15:28:55.501Z,15.40
2023-03-29T15:31:26.956Z,15.50
2023-03-29T15:34:13.785Z,15.50
2023-03-29T15:36:46.266Z,15.50
2023-03-29T15:39:15.350Z,15.50
2023-03-29T15:41:43.357Z,15.50
2023-03-29T15:44:11.173Z,15.40
2023-03-29T15:46:37.971Z,15.40
2023-03-29T15:49:05.105Z,15.40
2023-03-29T15:51:31.906Z,15.40
2023-03-29T15:53:58.477Z,15.40
2023-03-29T15:56:26.643Z,15.40
2023-03-29T15:58:53.224Z,15.30
2023-03-29T16:01:36.493Z,15.30
2023-03-29T16:04:11.150Z,15.30
2023-03-29T16:06:38.442Z,15.20
2023-03-29T16:09:06.985Z,15.20
2023-03-29T16:11:34.195Z,15.20
2023-03-29T16:14:01.143Z,15.30
2023-03-29T16:16:27.779Z,15.20
2023-03-29T16:18:54.399Z,15.20
2023-03-29T16:21:22.763Z,15.20
2023-03-29T16:23:49.942Z,15.20
2023-03-29T16:26:17.224Z,15.20
2023-03-29T16:28:44.159Z,15.10
2023-03-29T16:31:12.772Z,15.10
2023-03-29T16:33:40.939Z,15.10
2023-03-29T16:36:08.125Z,15.10
2023-03-29T16:38:34.834Z,15.10
2023-03-29T16:41:01.650Z,15.20
2023-03-29T16:43:28.479Z,15.10
2023-03-29T16:45:55.217Z,15.10
2023-03-29T16:48:22.050Z,15.10
2023-03-29T16:50:49.416Z,15.00
2023-03-29T16:53:18.505Z,15.00
2023-03-29T16:55:46.245Z,15.00
2023-03-29T16:58:13.205Z,15.00
2023-03-29T17:00:40.919Z,14.90
2023-03-29T17:03:07.954Z,14.90
2023-03-29T17:05:39.868Z,14.90
2023-03-29T17:08:07.108Z,14.90
2023-03-29T17:10:33.804Z,14.80
2023-03-29T17:13:00.794Z,14.90
2023-03-29T17:15:27.425Z,14.80
2023-03-29T17:17:54.097Z,14.80
2023-03-29T17:20:20.994Z,14.80
2023-03-29T17:22:51.495Z,14.70
2023-03-29T17:25:18.743Z,14.70
2023-03-29T17:27:46.032Z,14.70
2023-03-29T17:30:13.022Z,14.70
2023-03-29T17:32:41.376Z,14.70
2023-03-29T17:35:09.900Z,14.70
2023-03-29T17:37:37.503Z,14.60
2023-03-29T17:40:13.481Z,14.60
2023-03-29T17:42:41.012Z,14.60
2023-03-29T17:45:08.758Z,14.50
2023-03-29T17:47:35.492Z,14.50
2023-03-29T17:50:02.371Z,14.50
2023-03-29T17:52:29.124Z,14.50
2023-03-29T17:54:55.853Z,14.50
2023-03-29T17:57:22.876Z,14.40
2023-03-29T17:59:49.771Z,14.40
2023-03-29T18:02:18.689Z,14.30
2023-03-29T18:04:45.380Z,14.30
2023-03-29T18:07:12.138Z,14.30
2023-03-29T18:09:38.752Z,14.30
2023-03-29T18:12:05.591Z,14.20
2023-03-29T18:14:32.643Z,14.20
2023-03-29T18:16:59.263Z,14.10
2023-03-29T18:19:26.418Z,14.10
2023-03-29T18:21:53.061Z,14.10
2023-03-29T18:24:19.819Z,14.00
2023-03-29T18:26:46.452Z,13.90
2023-03-29T18:29:13.203Z,13.90
2023-03-29T18:31:39.936Z,13.80
2023-03-29T18:34:06.631Z,13.80
2023-03-29T18:36:33.320Z,13.80
2023-03-29T18:39:05.490Z,13.70
2023-03-29T18:41:37.234Z,13.60
2023-03-29T18:44:04.458Z,13.60
2023-03-29T18:46:32.290Z,13.60
2023-03-29T18:49:01.616Z,13.50
2023-03-29T18:51:28.324Z,13.50
2023-03-29T18:53:56.500Z,13.50
2023-03-29T18:56:23.580Z,13.40
2023-03-29T18:58:50.420Z,13.40
2023-03-29T19:01:17.183Z,13.40
2023-03-29T19:03:44.071Z,13.40
2023-03-29T19:06:11.749Z,13.30
2023-03-29T19:08:41.031Z,13.30
2023-03-29T19:11:10.174Z,13.20
2023-03-29T19:13:36.977Z,13.20
2023-03-29T19:16:04.485Z,13.20
2023-03-29T19:18:31.567Z,13.10
2023-03-29T19:20:58.357Z,13.10
2023-03-29T19:23:27.486Z,13.10
2023-03-29T19:25:58.877Z,13.00
2023-03-29T19:28:26.393Z,13.00
2023-03-29T19:30:54.224Z,12.90
2023-03-29T19:33:20.936Z,12.90
2023-03-29T19:35:50.218Z,12.90
2023-03-29T19:38:16.982Z,12.80
2023-03-29T19:40:51.346Z,12.80
2023-03-29T19:43:18.363Z,12.80
2023-03-29T19:45:49.656Z,12.80
2023-03-29T19:50:47.496Z,12.70
2023-03-29T19:53:14.213Z,12.70
2023-03-29T19:55:42.431Z,12.70
2023-03-29T19:58:09.383Z,12.60
2023-03-29T20:00:38.892Z,12.60
2023-03-29T20:03:09.996Z,12.60
2023-03-29T20:05:39.014Z,12.60
2023-03-29T20:08:06.598Z,12.60
2023-03-29T20:10:33.942Z,12.60
2023-03-29T20:13:00.684Z,12.60
2023-03-29T20:15:27.370Z,12.60
2023-03-29T20:17:58.503Z,12.60
2023-03-29T20:20:26.701Z,12.50
2023-03-29T20:22:57.901Z,12.50
2023-03-29T20:25:24.848Z,12.50
2023-03-29T20:27:51.441Z,12.40
2023-03-29T20:30:18.062Z,12.40
2023-03-29T20:32:44.757Z,12.40
2023-03-29T20:35:11.675Z,12.30
2023-03-29T20:37:38.263Z,12.30
2023-03-29T20:40:06.177Z,12.30
2023-03-29T20:42:34.276Z,12.30
2023-03-29T20:45:01.780Z,12.20
2023-03-29T20:47:29.342Z,12.20
2023-03-29T20:49:56.734Z,12.20
2023-03-29T20:52:24.552Z,12.20
2023-03-29T20:54:51.365Z,12.20
2023-03-29T20:57:20.535Z,12.20
2023-03-29T20:59:49.064Z,12.20
2023-03-29T21:02:21.373Z,12.20
2023-03-29T21:04:52.395Z,12.20
2023-03-29T21:07:20.212Z,12.20
2023-03-29T21:09:49.857Z,12.30
2023-03-29T21:12:16.733Z,12.30
2023-03-29T21:14:43.545Z,12.30
2023-03-29T21:17:10.328Z,12.40
2023-03-29T21:19:39.054Z,12.40
2023-03-29T21:22:06.027Z,12.40
2023-03-29T21:24:33.168Z,12.40
2023-03-29T21:27:00.488Z,12.40
2023-03-29T21:29:27.205Z,12.50
2023-03-29T21:31:54.037Z,12.50
2023-03-29T21:34:20.685Z,12.50
2023-03-29T21:36:47.409Z,12.60
2023-03-29T21:39:14.136Z,12.60
2023-03-29T21:41:41.005Z,12.60
2023-03-29T21:44:07.720Z,12.60
2023-03-29T21:46:34.518Z,12.60
2023-03-29T21:49:01.212Z,12.60
2023-03-29T21:51:27.793Z,12.60
2023-03-29T21:53:54.391Z,12.60
2023-03-29T21:56:22.307Z,12.60
2023-03-29T21:58:49.080Z,12.60
2023-03-29T22:01:16.163Z,12.60
2023-03-29T22:03:43.009Z,12.60
2023-03-29T22:06:13.435Z,12.60
2023-03-29T22:08:40.587Z,12.70
2023-03-29T22:11:13.854Z,12.70
2023-03-29T22:13:41.545Z,12.70
2023-03-29T22:16:09.406Z,12.70
2023-03-29T22:18:43.891Z,12.70
2023-03-29T22:21:16.289Z,12.80
2023-03-29T22:23:44.928Z,12.80
2023-03-29T22:26:13.738Z,12.80
2023-03-29T22:28:41.652Z,12.80
2023-03-29T22:31:11.385Z,12.80
2023-03-29T22:33:38.924Z,12.90
2023-03-29T22:36:20.932Z,12.80
2023-03-29T22:38:48.354Z,12.90
2023-03-29T22:41:15.997Z,12.90
2023-03-29T22:43:42.674Z,12.90
2023-03-29T22:46:12.304Z,13.00
2023-03-29T22:48:39.711Z,13.00
2023-03-29T22:51:06.512Z,13.00
2023-03-29T22:53:33.888Z,13.00
2023-03-29T22:56:00.844Z,13.00
2023-03-29T22:58:29.257Z,13.10
2023-03-29T23:00:57.233Z,13.10
2023-03-29T23:03:24.128Z,13.20
2023-03-29T23:05:56.309Z,13.20
2023-03-29T23:08:24.816Z,13.20
2023-03-29T23:10:52.133Z,13.20
2023-03-29T23:13:33.470Z,13.20
2023-03-29T23:16:01.744Z,13.30
2023-03-29T23:18:30.185Z,13.30
2023-03-29T23:20:58.823Z,13.30
2023-03-29T23:23:26.840Z,13.30
2023-03-29T23:25:55.037Z,13.40
2023-03-29T23:28:24.860Z,13.40
2023-03-29T23:31:06.448Z,13.40
2023-03-29T23:33:34.861Z,13.40
2023-03-29T23:36:05.280Z,13.50
2023-03-29T23:38:34.145Z,13.50
2023-03-29T23:41:02.731Z,13.50
2023-03-29T23:43:32.664Z,13.50
2023-03-29T23:46:01.553Z,13.50
2023-03-29T23:48:28.639Z,13.50
2023-03-29T23:50:57.215Z,13.50
2023-03-29T23:53:25.396Z,13.60
2023-03-29T23:55:52.522Z,13.60
2023-03-29T23:58:19.179Z,13.60
